createdAt,value
2023-01-06T00:00:22.696Z,1.13
2023-01-06T00:02:52.975Z,0.88
2023-01-06T00:05:22.550Z,1.10
2023-01-06T00:07:50.637Z,0.90
2023-01-06T00:10:23.521Z,0.75
2023-01-06T00:12:50.620Z,1.08
2023-01-06T00:15:26.252Z,0.88
2023-01-06T00:17:52.693Z,0.63
2023-01-06T00:20:23.862Z,0.70
2023-01-06T00:22:50.294Z,0.73
2023-01-06T00:25:16.741Z,1.00
2023-01-06T00:27:47.462Z,0.65
2023-01-06T00:30:13.972Z,0.80
2023-01-06T00:32:40.327Z,0.80
2023-01-06T00:35:11.404Z,1.30
2023-01-06T00:37:37.778Z,1.10
2023-01-06T00:40:04.482Z,1.50
2023-01-06T00:45:17.274Z,1.67
2023-01-06T00:47:43.813Z,1.52
2023-01-06T00:50:10.692Z,1.50
2023-01-06T00:52:41.650Z,1.30
2023-01-06T00:55:08.386Z,1.30
2023-01-06T00:57:34.773Z,1.63
2023-01-06T01:02:42.066Z,1.70
2023-01-06T01:05:16.647Z,1.95
2023-01-06T01:07:45.527Z,1.65
2023-01-06T01:10:14.827Z,1.60
2023-01-06T01:12:41.259Z,1.70
2023-01-06T01:15:11.211Z,1.73
2023-01-06T01:17:41.035Z,1.33
2023-01-06T01:20:08.225Z,1.15
2023-01-06T01:22:46.620Z,1.10
2023-01-06T01:27:55.725Z,1.40
2023-01-06T01:30:28.013Z,1.23
2023-01-06T01:32:57.226Z,1.13
2023-01-06T01:35:30.463Z,1.10
2023-01-06T01:37:56.801Z,0.90
2023-01-06T01:40:26.052Z,0.90
2023-01-06T01:42:55.473Z,1.02
2023-01-06T01:45:24.102Z,1.20
2023-01-06T01:48:32.308Z,0.87
2023-01-06T01:51:02.479Z,0.95
2023-01-06T01:53:36.009Z,0.88
2023-01-06T01:56:15.530Z,0.68
2023-01-06T01:58:58.789Z,0.90
2023-01-06T02:01:25.485Z,0.97
2023-01-06T02:03:52.640Z,0.77
2023-01-06T02:06:28.180Z,1.20
2023-01-06T02:09:24.637Z,0.90
2023-01-06T02:11:52.217Z,0.80
2023-01-06T02:17:20.389Z,1.10
2023-01-06T02:20:14.000Z,0.60
2023-01-06T02:23:17.945Z,1.27
2023-01-06T02:29:30.021Z,0.77
2023-01-06T02:32:08.655Z,0.70
2023-01-06T02:35:05.968Z,0.60
2023-01-06T02:38:06.722Z,0.70
2023-01-06T02:41:10.314Z,1.08
2023-01-06T02:44:11.202Z,0.67
2023-01-06T02:47:03.255Z,0.65
2023-01-06T02:49:57.624Z,0.63
2023-01-06T02:52:43.031Z,0.60
2023-01-06T02:55:17.896Z,1.20
2023-01-06T02:57:51.962Z,0.70
2023-01-06T03:00:54.268Z,1.13
2023-01-06T03:03:25.578Z,1.13
2023-01-06T03:06:01.306Z,1.30
2023-01-06T03:08:38.098Z,1.45
2023-01-06T03:11:05.018Z,1.20
2023-01-06T03:16:33.546Z,1.25
2023-01-06T03:19:09.877Z,1.13
2023-01-06T03:21:44.035Z,1.30
2023-01-06T03:24:14.232Z,1.30
2023-01-06T03:29:36.515Z,1.58
2023-01-06T03:32:17.800Z,1.15
2023-01-06T03:35:18.161Z,0.88
2023-01-06T03:38:22.607Z,0.90
2023-01-06T03:41:56.498Z,0.70
2023-01-06T03:44:52.653Z,1.00
2023-01-06T03:47:30.945Z,0.80
2023-01-06T03:50:21.603Z,1.13
2023-01-06T03:53:03.022Z,0.70
2023-01-06T03:55:34.371Z,1.02
2023-01-06T03:58:03.498Z,0.88
2023-01-06T04:00:37.717Z,0.80
2023-01-06T04:03:14.314Z,1.23
2023-01-06T04:05:40.848Z,0.60
2023-01-06T04:08:20.346Z,0.50
2023-01-06T04:10:51.425Z,0.60
2023-01-06T04:13:21.604Z,0.60
2023-01-06T04:15:48.229Z,0.73
2023-01-06T04:18:14.918Z,0.67
2023-01-06T04:20:44.274Z,0.75
2023-01-06T04:23:10.725Z,0.68
2023-01-06T04:25:50.131Z,0.77
2023-01-06T04:28:16.477Z,0.88
2023-01-06T04:30:45.444Z,0.67
2023-01-06T04:33:11.976Z,0.52
2023-01-06T04:35:38.389Z,0.60
2023-01-06T04:38:05.673Z,0.50
2023-01-06T04:40:34.407Z,0.50
2023-01-06T04:43:21.051Z,0.60
2023-01-06T04:48:35.419Z,0.40
2023-01-06T04:51:03.853Z,0.60
2023-01-06T04:53:38.022Z,0.50
2023-01-06T04:56:09.207Z,0.77
2023-01-06T04:58:41.323Z,0.50
2023-01-06T05:01:10.905Z,0.50
2023-01-06T05:03:43.287Z,0.40
2023-01-06T05:06:11.623Z,0.50
2023-01-06T05:08:39.539Z,0.50
2023-01-06T05:11:33.268Z,0.65
2023-01-06T05:13:59.805Z,0.70
2023-01-06T05:16:38.165Z,0.50
2023-01-06T05:19:04.934Z,0.63
2023-01-06T05:21:33.582Z,0.80
2023-01-06T05:24:00.417Z,0.50
2023-01-06T05:26:28.134Z,0.75
2023-01-06T05:28:57.607Z,0.40
2023-01-06T05:31:27.146Z,0.60
2023-01-06T05:36:39.679Z,0.55
2023-01-06T05:39:09.215Z,0.60
2023-01-06T05:41:35.550Z,0.50
2023-01-06T05:44:10.276Z,0.70
2023-01-06T05:46:36.801Z,0.80
2023-01-06T05:51:45.789Z,0.57
2023-01-06T05:54:12.651Z,0.57
2023-01-06T05:56:39.065Z,0.52
2023-01-06T05:59:05.535Z,0.40
2023-01-06T06:04:16.500Z,0.40
2023-01-06T06:06:46.063Z,0.50
2023-01-06T06:09:12.519Z,0.75
2023-01-06T06:11:41.741Z,0.40
2023-01-06T06:14:10.950Z,0.40
2023-01-06T06:16:38.485Z,0.40
2023-01-06T06:19:10.270Z,0.40
2023-01-06T06:21:36.711Z,0.38
2023-01-06T06:24:17.957Z,0.60
2023-01-06T06:26:44.302Z,0.50
2023-01-06T06:29:20.798Z,0.68
2023-01-06T06:31:54.337Z,0.70
2023-01-06T06:34:20.801Z,0.70
2023-01-06T06:36:47.210Z,0.60
2023-01-06T06:39:13.682Z,0.40
2023-01-06T06:41:40.189Z,0.50
2023-01-06T06:44:06.571Z,0.65
2023-01-06T06:46:33.069Z,0.82
2023-01-06T06:49:03.529Z,0.80
2023-01-06T06:51:31.583Z,0.60
2023-01-06T06:53:58.081Z,0.57
2023-01-06T06:56:28.268Z,0.70
2023-01-06T06:58:54.730Z,0.75
2023-01-06T07:01:21.847Z,0.60
2023-01-06T07:03:57.463Z,0.65
2023-01-06T07:06:29.323Z,0.90
2023-01-06T07:08:55.732Z,0.93
2023-01-06T07:11:22.350Z,0.77
2023-01-06T07:13:48.985Z,0.77
2023-01-06T07:16:19.790Z,0.68
2023-01-06T07:18:47.040Z,0.60
2023-01-06T07:21:13.722Z,0.70
2023-01-06T07:23:42.679Z,0.90
2023-01-06T07:26:12.116Z,0.70
2023-01-06T07:28:40.919Z,0.70
2023-01-06T07:31:07.678Z,0.50
2023-01-06T07:33:34.118Z,0.47
2023-01-06T07:36:00.518Z,0.70
2023-01-06T07:38:32.555Z,0.40
2023-01-06T07:41:01.229Z,0.52
2023-01-06T07:43:28.667Z,0.30
2023-01-06T07:45:55.808Z,0.43
2023-01-06T07:48:22.444Z,0.50
2023-01-06T07:50:48.849Z,0.60
2023-01-06T07:53:17.778Z,0.80
2023-01-06T07:55:51.555Z,0.52
2023-01-06T07:58:26.863Z,0.50
2023-01-06T08:00:53.324Z,0.50
2023-01-06T08:03:24.781Z,0.53
2023-01-06T08:05:54.496Z,0.82
2023-01-06T08:08:20.935Z,0.85
2023-01-06T08:10:49.963Z,0.80
2023-01-06T08:13:18.326Z,0.80
2023-01-06T08:18:44.367Z,0.73
2023-01-06T08:21:12.812Z,0.75
2023-01-06T08:23:43.041Z,0.70
2023-01-06T08:26:22.689Z,1.10
2023-01-06T08:28:49.500Z,0.80
2023-01-06T08:31:20.770Z,0.77
2023-01-06T08:33:51.733Z,1.00
2023-01-06T08:36:25.138Z,0.77
2023-01-06T08:38:51.776Z,0.80
2023-01-06T08:41:18.986Z,0.67
2023-01-06T08:43:49.234Z,0.90
2023-01-06T08:46:18.627Z,0.68
2023-01-06T08:48:50.773Z,0.50
2023-01-06T08:51:23.452Z,0.70
2023-01-06T08:54:02.686Z,0.70
2023-01-06T08:56:35.927Z,0.70
2023-01-06T08:59:04.790Z,0.90
2023-01-06T09:01:39.550Z,0.50
2023-01-06T09:04:08.145Z,0.90
2023-01-06T09:06:36.740Z,0.40
2023-01-06T09:09:07.773Z,0.60
2023-01-06T09:11:34.365Z,0.80
2023-01-06T09:14:06.506Z,0.70
2023-01-06T09:16:33.042Z,1.02
2023-01-06T09:18:59.475Z,0.60
2023-01-06T09:21:30.197Z,0.82
2023-01-06T09:23:56.618Z,0.68
2023-01-06T09:26:23.304Z,0.57
2023-01-06T09:28:52.520Z,1.02
2023-01-06T09:31:21.945Z,0.50
2023-01-06T09:33:48.530Z,0.95
2023-01-06T09:36:17.975Z,0.57
2023-01-06T09:38:47.965Z,0.47
2023-01-06T09:41:40.834Z,0.45
2023-01-06T09:44:24.611Z,0.40
2023-01-06T09:46:55.259Z,0.73
2023-01-06T09:49:56.098Z,0.60
2023-01-06T09:52:29.293Z,0.60
2023-01-06T09:55:05.271Z,0.70
2023-01-06T09:57:40.927Z,0.50
2023-01-06T10:00:29.628Z,0.45
2023-01-06T10:02:59.721Z,0.35
2023-01-06T10:05:55.583Z,0.50
2023-01-06T10:08:29.009Z,0.50
2023-01-06T10:11:16.340Z,0.40
2023-01-06T10:17:40.669Z,0.43
2023-01-06T10:20:52.642Z,0.40
2023-01-06T10:23:54.388Z,0.43
2023-01-06T10:26:37.468Z,0.63
2023-01-06T10:29:20.088Z,0.50
2023-01-06T10:31:51.365Z,0.82
2023-01-06T10:34:26.700Z,0.50
2023-01-06T10:37:20.860Z,0.63
2023-01-06T10:39:56.169Z,0.60
2023-01-06T10:42:57.381Z,0.63
2023-01-06T10:45:27.740Z,0.55
2023-01-06T10:47:57.177Z,0.52
2023-01-06T10:50:27.121Z,0.77
2023-01-06T10:52:53.756Z,0.63
2023-01-06T10:56:04.914Z,0.90
2023-01-06T10:58:44.995Z,1.27
2023-01-06T11:01:38.449Z,0.35
2023-01-06T11:04:15.298Z,0.40
2023-01-06T11:06:50.876Z,0.30
2023-01-06T11:09:41.024Z,0.50
2023-01-06T11:12:34.039Z,0.50
2023-01-06T11:15:02.878Z,0.40
2023-01-06T11:17:30.284Z,0.40
2023-01-06T11:20:29.008Z,0.40
2023-01-06T11:23:20.139Z,0.40
2023-01-06T11:26:01.533Z,0.40
2023-01-06T11:28:30.759Z,0.65
2023-01-06T11:31:26.238Z,0.50
2023-01-06T11:36:53.585Z,0.30
2023-01-06T11:39:35.684Z,0.30
2023-01-06T11:42:12.188Z,0.40
2023-01-06T11:44:43.344Z,0.40
2023-01-06T11:47:19.458Z,0.50
2023-01-06T11:49:53.306Z,0.50
2023-01-06T11:52:33.316Z,0.40
2023-01-06T11:55:08.394Z,0.70
2023-01-06T11:57:58.891Z,0.40
2023-01-06T12:00:37.113Z,0.50
2023-01-06T12:03:53.642Z,0.60
2023-01-06T12:06:31.899Z,0.32
2023-01-06T12:09:13.656Z,0.50
2023-01-06T12:11:55.320Z,0.45
2023-01-06T12:14:35.654Z,0.40
2023-01-06T12:17:16.778Z,1.08
2023-01-06T12:20:01.465Z,0.65
2023-01-06T12:22:53.495Z,0.32
2023-01-06T12:25:45.420Z,0.30
2023-01-06T12:28:28.223Z,0.50
2023-01-06T12:31:25.073Z,0.43
2023-01-06T12:34:05.537Z,0.50
2023-01-06T12:36:50.611Z,0.50
2023-01-06T12:43:17.271Z,0.50
2023-01-06T12:46:07.140Z,0.20
2023-01-06T12:51:41.255Z,0.25
2023-01-06T12:54:35.990Z,0.30
2023-01-06T12:57:33.393Z,0.30
2023-01-06T12:59:59.687Z,0.45
2023-01-06T13:02:47.736Z,0.40
2023-01-06T13:05:48.337Z,0.65
2023-01-06T13:08:45.711Z,0.30
2023-01-06T13:11:21.444Z,0.33
2023-01-06T13:14:30.323Z,0.73
2023-01-06T13:17:03.306Z,0.47
2023-01-06T13:19:55.950Z,0.40
2023-01-06T13:22:55.515Z,0.47
2023-01-06T13:25:54.604Z,0.27
2023-01-06T13:28:44.820Z,0.30
2023-01-06T13:31:59.032Z,0.25
2023-01-06T13:34:53.958Z,0.30
2023-01-06T13:37:32.970Z,0.32
2023-01-06T13:40:27.145Z,0.43
2023-01-06T13:43:19.649Z,0.30
2023-01-06T13:46:00.202Z,0.20
2023-01-06T13:48:42.475Z,0.65
2023-01-06T13:51:23.231Z,0.50
2023-01-06T13:53:54.609Z,0.50
2023-01-06T13:56:26.946Z,0.60
2023-01-06T13:59:19.666Z,0.55
2023-01-06T14:01:49.669Z,0.50
2023-01-06T14:04:41.037Z,0.40
2023-01-06T14:07:13.845Z,0.50
2023-01-06T14:09:48.325Z,0.30
2023-01-06T14:12:23.351Z,0.57
2023-01-06T14:15:05.975Z,0.30
2023-01-06T14:17:47.042Z,0.35
2023-01-06T14:20:40.745Z,0.40
2023-01-06T14:23:13.227Z,0.20
2023-01-06T14:28:34.200Z,0.30
2023-01-06T14:31:46.220Z,0.30
2023-01-06T14:34:18.691Z,0.40
2023-01-06T14:36:59.214Z,0.40
2023-01-06T14:39:32.521Z,0.30
2023-01-06T14:42:23.620Z,0.30
2023-01-06T14:45:01.453Z,0.40
2023-01-06T14:47:36.189Z,0.37
2023-01-06T14:50:38.287Z,0.30
2023-01-06T14:53:33.358Z,0.40
2023-01-06T14:56:07.363Z,0.40
2023-01-06T14:58:38.815Z,0.57
2023-01-06T15:04:33.494Z,0.38
2023-01-06T15:07:16.008Z,0.30
2023-01-06T15:09:54.922Z,0.40
2023-01-06T15:12:31.591Z,0.50
2023-01-06T15:15:22.815Z,0.40
2023-01-06T15:17:54.055Z,0.30
2023-01-06T15:20:25.690Z,0.30
2023-01-06T15:22:54.961Z,0.32
2023-01-06T15:25:26.878Z,0.55
2023-01-06T15:28:00.089Z,0.40
2023-01-06T15:30:28.169Z,0.35
2023-01-06T15:32:55.913Z,0.50
2023-01-06T15:35:29.843Z,0.30
2023-01-06T15:38:06.223Z,0.40
2023-01-06T15:40:32.994Z,0.40
2023-01-06T15:42:59.542Z,0.40
2023-01-06T15:45:36.145Z,0.40
2023-01-06T15:48:11.511Z,0.50
2023-01-06T15:50:38.040Z,0.50
2023-01-06T15:55:56.120Z,0.40
2023-01-06T15:58:27.836Z,0.40
2023-01-06T16:01:18.959Z,0.32
2023-01-06T16:03:54.981Z,0.47
2023-01-06T16:06:30.093Z,0.50
2023-01-06T16:09:30.547Z,0.77
2023-01-06T16:12:17.031Z,0.60
2023-01-06T16:14:52.554Z,1.00
2023-01-06T16:17:39.400Z,0.68
2023-01-06T16:23:40.686Z,1.00
2023-01-06T16:26:44.498Z,0.73
2023-01-06T16:29:44.174Z,0.70
2023-01-06T16:32:43.655Z,1.05
2023-01-06T16:35:25.499Z,0.90
2023-01-06T16:37:55.196Z,0.98
2023-01-06T16:40:27.948Z,0.73
2023-01-06T16:43:02.285Z,0.98
2023-01-06T16:45:31.555Z,1.50
2023-01-06T16:48:01.123Z,0.63
2023-01-06T16:50:39.810Z,0.95
2023-01-06T16:53:21.223Z,0.88
2023-01-06T16:55:51.497Z,1.50
2023-01-06T16:58:22.170Z,1.60
2023-01-06T17:00:54.554Z,1.30
2023-01-06T17:03:23.952Z,1.45
2023-01-06T17:05:54.745Z,1.67
2023-01-06T17:08:42.258Z,1.48
2023-01-06T17:11:20.547Z,1.67
2023-01-06T17:14:16.877Z,1.90
2023-01-06T17:16:47.866Z,1.77
2023-01-06T17:19:33.964Z,1.23
2023-01-06T17:22:24.651Z,1.58
2023-01-06T17:24:59.215Z,1.45
2023-01-06T17:27:34.841Z,1.90
2023-01-06T17:30:03.229Z,1.50
2023-01-06T17:32:41.830Z,1.85
2023-01-06T17:35:33.207Z,1.20
2023-01-06T17:38:13.186Z,0.90
2023-01-06T17:40:42.510Z,0.83
2023-01-06T17:43:33.461Z,0.82
2023-01-06T17:46:00.471Z,1.25
2023-01-06T17:48:27.116Z,0.63
2023-01-06T17:50:55.567Z,0.70
2023-01-06T17:53:52.145Z,0.87
2023-01-06T17:56:34.730Z,1.17
2023-01-06T17:59:12.438Z,0.90
2023-01-06T18:01:39.502Z,0.88
2023-01-06T18:04:16.083Z,1.00
2023-01-06T18:06:44.742Z,0.97
2023-01-06T18:09:21.829Z,0.82
2023-01-06T18:11:56.483Z,1.08
2023-01-06T18:14:45.525Z,1.25
2023-01-06T18:17:24.937Z,1.30
2023-01-06T18:19:51.682Z,0.90
2023-01-06T18:22:30.598Z,1.30
2023-01-06T18:25:10.008Z,1.30
2023-01-06T18:27:39.674Z,1.15
2023-01-06T18:30:15.058Z,1.25
2023-01-06T18:32:47.802Z,1.20
2023-01-06T18:35:27.887Z,1.67
2023-01-06T18:38:04.469Z,1.63
2023-01-06T18:40:37.466Z,1.77
2023-01-06T18:43:28.183Z,2.03
2023-01-06T18:46:11.260Z,1.60
2023-01-06T18:48:40.062Z,1.60
2023-01-06T18:51:18.701Z,2.03
2023-01-06T18:53:47.279Z,2.10
2023-01-06T18:56:20.330Z,2.50
2023-01-06T18:59:02.594Z,2.33
2023-01-06T19:01:52.489Z,2.50
2023-01-06T19:04:32.970Z,3.30
2023-01-06T19:07:18.314Z,2.75
2023-01-06T19:09:56.074Z,2.75
2023-01-06T19:12:33.975Z,2.80
2023-01-06T19:15:21.736Z,2.60
2023-01-06T19:17:53.797Z,3.25
2023-01-06T19:20:25.716Z,3.30
2023-01-06T19:22:56.254Z,3.20
2023-01-06T19:25:28.350Z,3.73
2023-01-06T19:27:59.805Z,3.42
2023-01-06T19:30:47.263Z,4.15
2023-01-06T19:33:23.265Z,4.78
2023-01-06T19:35:51.777Z,5.43
2023-01-06T19:38:42.100Z,4.80
2023-01-06T19:41:17.975Z,5.07
2023-01-06T19:43:44.722Z,5.65
2023-01-06T19:46:16.656Z,6.60
2023-01-06T19:48:43.025Z,5.70
2023-01-06T19:51:21.421Z,6.67
2023-01-06T19:54:03.713Z,7.88
2023-01-06T19:56:36.277Z,7.47
2023-01-06T19:59:14.929Z,7.35
2023-01-06T20:01:45.592Z,7.63
2023-01-06T20:04:26.986Z,7.73
2023-01-06T20:06:54.074Z,8.23
2023-01-06T20:09:23.318Z,6.88
2023-01-06T20:11:52.873Z,7.35
2023-01-06T20:14:41.399Z,7.45
2023-01-06T20:17:07.950Z,7.13
2023-01-06T20:19:34.345Z,6.90
2023-01-06T20:22:00.765Z,7.00
2023-01-06T20:24:28.078Z,6.03
2023-01-06T20:27:01.768Z,6.63
2023-01-06T20:29:30.525Z,6.77
2023-01-06T20:31:57.001Z,5.65
2023-01-06T20:34:28.541Z,5.93
2023-01-06T20:36:59.334Z,5.75
2023-01-06T20:39:25.791Z,5.95
2023-01-06T20:41:52.159Z,5.87
2023-01-06T20:44:23.941Z,5.35
2023-01-06T20:46:50.305Z,5.35
2023-01-06T20:49:22.727Z,5.85
2023-01-06T20:51:53.019Z,5.78
2023-01-06T20:54:19.436Z,4.70
2023-01-06T20:56:57.254Z,5.95
2023-01-06T20:59:24.060Z,5.90
2023-01-06T21:01:57.941Z,5.30
2023-01-06T21:04:24.657Z,5.68
2023-01-06T21:06:56.592Z,5.30
2023-01-06T21:09:28.030Z,5.13
2023-01-06T21:11:56.031Z,5.57
2023-01-06T21:14:26.089Z,5.07
2023-01-06T21:16:52.593Z,5.30
2023-01-06T21:19:27.259Z,6.03
2023-01-06T21:21:53.621Z,5.70
2023-01-06T21:27:06.281Z,5.45
2023-01-06T21:29:35.549Z,5.80
2023-01-06T21:32:01.995Z,5.73
2023-01-06T21:34:31.947Z,6.40
2023-01-06T21:36:58.544Z,6.05
2023-01-06T21:39:25.009Z,5.93
2023-01-06T21:42:13.158Z,6.32
2023-01-06T21:44:42.037Z,6.43
2023-01-06T21:47:10.006Z,6.57
2023-01-06T21:49:46.877Z,5.97
2023-01-06T21:52:18.889Z,6.60
2023-01-06T21:54:47.903Z,6.47
2023-01-06T21:57:14.275Z,6.37
2023-01-06T21:59:46.610Z,6.78
2023-01-06T22:02:15.946Z,6.68
2023-01-06T22:04:48.049Z,7.25
2023-01-06T22:07:17.228Z,6.68
2023-01-06T22:09:45.634Z,7.80
2023-01-06T22:12:20.647Z,7.45
2023-01-06T22:14:50.852Z,6.97
2023-01-06T22:17:22.262Z,7.82
2023-01-06T22:19:50.305Z,7.47
2023-01-06T22:22:23.982Z,8.80
2023-01-06T22:25:00.438Z,7.80
2023-01-06T22:27:29.627Z,7.38
2023-01-06T22:30:03.401Z,7.93
2023-01-06T22:32:32.622Z,7.53
2023-01-06T22:34:59.230Z,7.67
2023-01-06T22:37:25.915Z,7.78
2023-01-06T22:39:54.444Z,8.05
2023-01-06T22:42:22.624Z,7.15
2023-01-06T22:44:54.717Z,7.57
2023-01-06T22:47:24.634Z,7.30
2023-01-06T22:50:05.073Z,6.90
2023-01-06T22:52:32.296Z,7.32
2023-01-06T22:54:58.933Z,7.32
2023-01-06T22:57:28.472Z,7.18
2023-01-06T22:59:55.274Z,6.90
2023-01-06T23:02:24.163Z,6.60
2023-01-06T23:04:51.239Z,6.65
2023-01-06T23:07:20.068Z,6.93
2023-01-06T23:09:46.710Z,7.10
2023-01-06T23:12:16.007Z,6.87
2023-01-06T23:14:42.607Z,6.30
2023-01-06T23:17:12.301Z,6.65
2023-01-06T23:19:38.668Z,5.80
2023-01-06T23:22:05.050Z,6.13
2023-01-06T23:27:18.066Z,5.50
2023-01-06T23:29:46.116Z,5.63
2023-01-06T23:32:15.269Z,6.10
2023-01-06T23:34:41.940Z,6.25
2023-01-06T23:37:08.343Z,6.10
2023-01-06T23:39:34.694Z,6.10
2023-01-06T23:42:07.437Z,5.57
2023-01-06T23:44:38.129Z,5.97
2023-01-06T23:47:08.804Z,6.25
2023-01-06T23:49:38.169Z,5.03
2023-01-06T23:52:05.880Z,6.20
2023-01-06T23:54:37.307Z,6.13
2023-01-06T23:57:03.710Z,5.47
2023-01-06T23:59:30.683Z,5.93
